sensor_id;sensor_type;location;lat;lon;timestamp;temperature;humidity
74364;DHT22;62797;49.740;10.154;2023-10-31T00:01:48;12.20;89.90
74364;DHT22;62797;49.740;10.154;2023-10-31T00:04:15;12.20;89.90
74364;DHT22;62797;49.740;10.154;2023-10-31T00:06:43;12.20;89.60
74364;DHT22;62797;49.740;10.154;2023-10-31T00:09:09;12.20;89.80
74364;DHT22;62797;49.740;10.154;2023-10-31T00:11:36;12.20;89.70
74364;DHT22;62797;49.740;10.154;2023-10-31T00:14:02;12.20;90.10
74364;DHT22;62797;49.740;10.154;2023-10-31T00:16:28;12.10;89.70
74364;DHT22;62797;49.740;10.154;2023-10-31T00:18:54;12.10;89.40
74364;DHT22;62797;49.740;10.154;2023-10-31T00:21:20;12.10;89.20
74364;DHT22;62797;49.740;10.154;2023-10-31T00:23:47;12.10;89.70
74364;DHT22;62797;49.740;10.154;2023-10-31T00:26:13;12.10;89.30
74364;DHT22;62797;49.740;10.154;2023-10-31T00:28:44;12.10;89.30
74364;DHT22;62797;49.740;10.154;2023-10-31T00:31:09;12.10;89.30
74364;DHT22;62797;49.740;10.154;2023-10-31T00:33:37;12.10;88.90
74364;DHT22;62797;49.740;10.154;2023-10-31T00:36:03;12.00;88.80
74364;DHT22;62797;49.740;10.154;2023-10-31T00:38:29;12.00;88.30
74364;DHT22;62797;49.740;10.154;2023-10-31T00:40:55;12.00;88.90
74364;DHT22;62797;49.740;10.154;2023-10-31T00:43:21;12.00;88.50
74364;DHT22;62797;49.740;10.154;2023-10-31T00:45:47;12.00;88.70
74364;DHT22;62797;49.740;10.154;2023-10-31T00:48:12;12.00;88.30
74364;DHT22;62797;49.740;10.154;2023-10-31T00:50:38;11.90;88.70
74364;DHT22;62797;49.740;10.154;2023-10-31T00:53:04;11.90;87.70
74364;DHT22;62797;49.740;10.154;2023-10-31T00:55:29;11.90;88.60
74364;DHT22;62797;49.740;10.154;2023-10-31T00:57:55;11.90;89.10
74364;DHT22;62797;49.740;10.154;2023-10-31T01:00:23;11.90;89.40
74364;DHT22;62797;49.740;10.154;2023-10-31T01:02:49;11.90;89.00
74364;DHT22;62797;49.740;10.154;2023-10-31T01:05:15;11.80;88.30
74364;DHT22;62797;49.740;10.154;2023-10-31T01:07:41;11.90;88.40
74364;DHT22;62797;49.740;10.154;2023-10-31T01:10:08;11.80;88.50
74364;DHT22;62797;49.740;10.154;2023-10-31T01:12:34;11.80;88.10
74364;DHT22;62797;49.740;10.154;2023-10-31T01:15:00;11.90;88.20
74364;DHT22;62797;49.740;10.154;2023-10-31T01:17:26;11.90;88.30
74364;DHT22;62797;49.740;10.154;2023-10-31T01:19:52;11.80;87.70
74364;DHT22;62797;49.740;10.154;2023-10-31T01:22:18;11.90;87.90
74364;DHT22;62797;49.740;10.154;2023-10-31T01:24:43;11.90;87.50
74364;DHT22;62797;49.740;10.154;2023-10-31T01:27:09;11.90;87.30
74364;DHT22;62797;49.740;10.154;2023-10-31T01:29:35;11.90;88.20
74364;DHT22;62797;49.740;10.154;2023-10-31T01:32:00;11.90;87.70
74364;DHT22;62797;49.740;10.154;2023-10-31T01:34:27;11.80;86.10
74364;DHT22;62797;49.740;10.154;2023-10-31T01:36:53;11.80;86.40
74364;DHT22;62797;49.740;10.154;2023-10-31T01:39:18;11.70;86.20
74364;DHT22;62797;49.740;10.154;2023-10-31T01:41:44;11.70;85.70
74364;DHT22;62797;49.740;10.154;2023-10-31T01:44:10;11.70;86.80
74364;DHT22;62797;49.740;10.154;2023-10-31T01:46:36;11.70;84.60
74364;DHT22;62797;49.740;10.154;2023-10-31T01:49:02;11.70;85.20
74364;DHT22;62797;49.740;10.154;2023-10-31T01:51:29;11.70;84.90
74364;DHT22;62797;49.740;10.154;2023-10-31T01:53:55;11.70;85.00
74364;DHT22;62797;49.740;10.154;2023-10-31T01:56:21;11.60;84.00
74364;DHT22;62797;49.740;10.154;2023-10-31T01:58:48;11.60;84.10
74364;DHT22;62797;49.740;10.154;2023-10-31T02:01:14;11.50;84.80
74364;DHT22;62797;49.740;10.154;2023-10-31T02:03:40;11.50;84.90
74364;DHT22;62797;49.740;10.154;2023-10-31T02:06:06;11.50;85.30
74364;DHT22;62797;49.740;10.154;2023-10-31T02:08:32;11.50;86.00
74364;DHT22;62797;49.740;10.154;2023-10-31T02:10:58;11.50;86.70
74364;DHT22;62797;49.740;10.154;2023-10-31T02:13:23;11.50;87.30
74364;DHT22;62797;49.740;10.154;2023-10-31T02:15:49;11.50;87.60
74364;DHT22;62797;49.740;10.154;2023-10-31T02:18:15;11.50;86.10
74364;DHT22;62797;49.740;10.154;2023-10-31T02:20:41;11.60;85.90
74364;DHT22;62797;49.740;10.154;2023-10-31T02:23:07;11.50;84.80
74364;DHT22;62797;49.740;10.154;2023-10-31T02:25:33;11.40;84.30
74364;DHT22;62797;49.740;10.154;2023-10-31T02:27:58;11.40;84.40
74364;DHT22;62797;49.740;10.154;2023-10-31T02:30:24;11.30;84.50
74364;DHT22;62797;49.740;10.154;2023-10-31T02:32:50;11.10;85.00
74364;DHT22;62797;49.740;10.154;2023-10-31T02:35:17;11.00;82.90
74364;DHT22;62797;49.740;10.154;2023-10-31T02:37:44;10.90;84.90
74364;DHT22;62797;49.740;10.154;2023-10-31T02:40:10;10.90;84.10
74364;DHT22;62797;49.740;10.154;2023-10-31T02:42:38;10.80;83.50
74364;DHT22;62797;49.740;10.154;2023-10-31T02:45:05;10.70;84.00
74364;DHT22;62797;49.740;10.154;2023-10-31T02:47:31;10.70;82.90
74364;DHT22;62797;49.740;10.154;2023-10-31T02:49:57;10.60;84.20
74364;DHT22;62797;49.740;10.154;2023-10-31T02:52:23;10.50;84.70
74364;DHT22;62797;49.740;10.154;2023-10-31T02:54:48;10.40;84.40
74364;DHT22;62797;49.740;10.154;2023-10-31T02:57:15;10.40;83.90
74364;DHT22;62797;49.740;10.154;2023-10-31T02:59:41;10.40;83.80
74364;DHT22;62797;49.740;10.154;2023-10-31T03:02:07;10.40;84.20
74364;DHT22;62797;49.740;10.154;2023-10-31T03:04:33;10.40;84.10
74364;DHT22;62797;49.740;10.154;2023-10-31T03:06:59;10.30;83.40
74364;DHT22;62797;49.740;10.154;2023-10-31T03:09:24;10.30;83.00
74364;DHT22;62797;49.740;10.154;2023-10-31T03:11:50;10.30;82.80
74364;DHT22;62797;49.740;10.154;2023-10-31T03:14:16;10.30;83.90
74364;DHT22;62797;49.740;10.154;2023-10-31T03:16:42;10.20;83.20
74364;DHT22;62797;49.740;10.154;2023-10-31T03:19:07;10.20;83.20
74364;DHT22;62797;49.740;10.154;2023-10-31T03:21:33;10.20;83.70
74364;DHT22;62797;49.740;10.154;2023-10-31T03:23:59;10.20;82.90
74364;DHT22;62797;49.740;10.154;2023-10-31T03:26:25;10.30;83.60
74364;DHT22;62797;49.740;10.154;2023-10-31T03:28:51;10.20;84.60
74364;DHT22;62797;49.740;10.154;2023-10-31T03:31:16;10.10;84.90
74364;DHT22;62797;49.740;10.154;2023-10-31T03:33:43;10.20;82.90
74364;DHT22;62797;49.740;10.154;2023-10-31T03:36:09;10.10;84.20
74364;DHT22;62797;49.740;10.154;2023-10-31T03:38:35;10.20;84.00
74364;DHT22;62797;49.740;10.154;2023-10-31T03:41:02;10.20;83.50
74364;DHT22;62797;49.740;10.154;2023-10-31T03:43:28;10.10;83.40
74364;DHT22;62797;49.740;10.154;2023-10-31T03:45:55;10.10;83.30
74364;DHT22;62797;49.740;10.154;2023-10-31T03:48:21;10.10;83.40
74364;DHT22;62797;49.740;10.154;2023-10-31T03:50:46;10.10;83.60
74364;DHT22;62797;49.740;10.154;2023-10-31T03:53:12;10.20;82.30
74364;DHT22;62797;49.740;10.154;2023-10-31T03:55:38;10.10;83.00
74364;DHT22;62797;49.740;10.154;2023-10-31T03:58:04;10.10;81.90
74364;DHT22;62797;49.740;10.154;2023-10-31T04:00:30;10.10;82.00
74364;DHT22;62797;49.740;10.154;2023-10-31T04:02:56;10.10;82.60
74364;DHT22;62797;49.740;10.154;2023-10-31T04:05:21;10.10;81.00
74364;DHT22;62797;49.740;10.154;2023-10-31T04:07:48;10.10;83.10
74364;DHT22;62797;49.740;10.154;2023-10-31T04:10:15;10.00;82.00
74364;DHT22;62797;49.740;10.154;2023-10-31T04:12:41;10.00;82.10
74364;DHT22;62797;49.740;10.154;2023-10-31T04:15:08;10.00;82.30
74364;DHT22;62797;49.740;10.154;2023-10-31T04:17:34;10.10;83.10
74364;DHT22;62797;49.740;10.154;2023-10-31T04:20:00;10.10;83.10
74364;DHT22;62797;49.740;10.154;2023-10-31T04:22:26;10.00;83.00
74364;DHT22;62797;49.740;10.154;2023-10-31T04:24:51;10.00;82.30
74364;DHT22;62797;49.740;10.154;2023-10-31T04:27:17;10.00;81.60
74364;DHT22;62797;49.740;10.154;2023-10-31T04:29:44;10.00;81.30
74364;DHT22;62797;49.740;10.154;2023-10-31T04:32:09;10.00;80.20
74364;DHT22;62797;49.740;10.154;2023-10-31T04:34:35;10.10;80.80
74364;DHT22;62797;49.740;10.154;2023-10-31T04:37:01;10.00;79.90
74364;DHT22;62797;49.740;10.154;2023-10-31T04:39:27;10.00;81.40
74364;DHT22;62797;49.740;10.154;2023-10-31T04:41:53;10.10;81.90
74364;DHT22;62797;49.740;10.154;2023-10-31T04:44:18;10.10;81.60
74364;DHT22;62797;49.740;10.154;2023-10-31T04:46:44;10.10;81.50
74364;DHT22;62797;49.740;10.154;2023-10-31T04:49:10;10.10;81.20
74364;DHT22;62797;49.740;10.154;2023-10-31T04:51:38;10.10;83.10
74364;DHT22;62797;49.740;10.154;2023-10-31T04:54:05;10.10;82.60
74364;DHT22;62797;49.740;10.154;2023-10-31T04:56:31;10.10;82.90
74364;DHT22;62797;49.740;10.154;2023-10-31T04:58:56;10.00;83.00
74364;DHT22;62797;49.740;10.154;2023-10-31T05:01:22;10.00;82.60
74364;DHT22;62797;49.740;10.154;2023-10-31T05:03:48;10.00;82.70
74364;DHT22;62797;49.740;10.154;2023-10-31T05:06:22;10.10;81.30
74364;DHT22;62797;49.740;10.154;2023-10-31T05:08:48;10.10;81.60
74364;DHT22;62797;49.740;10.154;2023-10-31T05:11:17;10.10;81.60
74364;DHT22;62797;49.740;10.154;2023-10-31T05:13:44;10.10;81.40
74364;DHT22;62797;49.740;10.154;2023-10-31T05:16:10;10.10;82.50
74364;DHT22;62797;49.740;10.154;2023-10-31T05:18:37;10.10;81.50
74364;DHT22;62797;49.740;10.154;2023-10-31T05:21:04;10.10;81.90
74364;DHT22;62797;49.740;10.154;2023-10-31T05:23:29;10.10;81.20
74364;DHT22;62797;49.740;10.154;2023-10-31T05:25:55;10.10;80.70
74364;DHT22;62797;49.740;10.154;2023-10-31T05:28:21;10.10;81.20
74364;DHT22;62797;49.740;10.154;2023-10-31T05:30:46;10.20;79.50
74364;DHT22;62797;49.740;10.154;2023-10-31T05:33:17;10.20;80.10
74364;DHT22;62797;49.740;10.154;2023-10-31T05:35:43;10.20;79.20
74364;DHT22;62797;49.740;10.154;2023-10-31T05:38:08;10.20;79.20
74364;DHT22;62797;49.740;10.154;2023-10-31T05:40:34;10.20;79.90
74364;DHT22;62797;49.740;10.154;2023-10-31T05:43:03;10.10;79.90
74364;DHT22;62797;49.740;10.154;2023-10-31T05:45:30;10.20;78.80
74364;DHT22;62797;49.740;10.154;2023-10-31T05:47:56;10.20;79.30
74364;DHT22;62797;49.740;10.154;2023-10-31T05:50:22;10.20;79.10
74364;DHT22;62797;49.740;10.154;2023-10-31T05:52:48;10.20;78.70
74364;DHT22;62797;49.740;10.154;2023-10-31T05:55:13;10.20;79.10
74364;DHT22;62797;49.740;10.154;2023-10-31T05:57:39;10.20;79.80
74364;DHT22;62797;49.740;10.154;2023-10-31T06:00:08;10.20;80.00
74364;DHT22;62797;49.740;10.154;2023-10-31T06:02:40;10.20;79.30
74364;DHT22;62797;49.740;10.154;2023-10-31T06:05:06;10.20;77.70
74364;DHT22;62797;49.740;10.154;2023-10-31T06:07:32;10.20;77.70
74364;DHT22;62797;49.740;10.154;2023-10-31T06:09:58;10.20;79.00
74364;DHT22;62797;49.740;10.154;2023-10-31T06:12:23;10.20;78.20
74364;DHT22;62797;49.740;10.154;2023-10-31T06:14:49;10.20;77.20
74364;DHT22;62797;49.740;10.154;2023-10-31T06:17:15;10.20;78.40
74364;DHT22;62797;49.740;10.154;2023-10-31T06:19:40;10.10;79.00
74364;DHT22;62797;49.740;10.154;2023-10-31T06:22:11;10.20;76.60
74364;DHT22;62797;49.740;10.154;2023-10-31T06:24:37;10.20;76.10
74364;DHT22;62797;49.740;10.154;2023-10-31T06:27:02;10.30;76.30
74364;DHT22;62797;49.740;10.154;2023-10-31T06:29:28;10.30;74.90
74364;DHT22;62797;49.740;10.154;2023-10-31T06:31:54;10.20;76.30
74364;DHT22;62797;49.740;10.154;2023-10-31T06:34:19;10.20;76.40
74364;DHT22;62797;49.740;10.154;2023-10-31T06:36:47;10.20;77.30
74364;DHT22;62797;49.740;10.154;2023-10-31T06:39:13;10.20;76.40
74364;DHT22;62797;49.740;10.154;2023-10-31T06:41:40;10.20;74.60
74364;DHT22;62797;49.740;10.154;2023-10-31T06:44:06;10.20;74.90
74364;DHT22;62797;49.740;10.154;2023-10-31T06:46:32;10.20;74.90
74364;DHT22;62797;49.740;10.154;2023-10-31T06:48:57;10.20;75.20
74364;DHT22;62797;49.740;10.154;2023-10-31T06:51:23;10.20;75.60
74364;DHT22;62797;49.740;10.154;2023-10-31T06:53:49;10.30;74.40
74364;DHT22;62797;49.740;10.154;2023-10-31T06:56:14;10.30;75.00
74364;DHT22;62797;49.740;10.154;2023-10-31T06:58:40;10.30;75.10
74364;DHT22;62797;49.740;10.154;2023-10-31T07:01:06;10.40;75.20
74364;DHT22;62797;49.740;10.154;2023-10-31T07:03:31;10.30;75.20
74364;DHT22;62797;49.740;10.154;2023-10-31T07:05:58;10.40;74.20
74364;DHT22;62797;49.740;10.154;2023-10-31T07:08:24;10.40;74.40
74364;DHT22;62797;49.740;10.154;2023-10-31T07:10:50;10.50;72.20
74364;DHT22;62797;49.740;10.154;2023-10-31T07:13:15;10.50;72.80
74364;DHT22;62797;49.740;10.154;2023-10-31T07:15:42;10.50;71.90
74364;DHT22;62797;49.740;10.154;2023-10-31T07:18:07;10.50;73.00
74364;DHT22;62797;49.740;10.154;2023-10-31T07:20:33;10.50;73.40
74364;DHT22;62797;49.740;10.154;2023-10-31T07:22:59;10.50;69.70
74364;DHT22;62797;49.740;10.154;2023-10-31T07:25:25;10.40;71.50
74364;DHT22;62797;49.740;10.154;2023-10-31T07:27:50;10.50;70.30
74364;DHT22;62797;49.740;10.154;2023-10-31T07:30:16;10.50;70.70
74364;DHT22;62797;49.740;10.154;2023-10-31T07:32:42;10.50;70.30
74364;DHT22;62797;49.740;10.154;2023-10-31T07:35:08;10.50;71.30
74364;DHT22;62797;49.740;10.154;2023-10-31T07:37:33;10.50;71.20
74364;DHT22;62797;49.740;10.154;2023-10-31T07:39:59;10.40;72.30
74364;DHT22;62797;49.740;10.154;2023-10-31T07:42:24;10.40;72.10
74364;DHT22;62797;49.740;10.154;2023-10-31T07:44:51;10.40;71.80
74364;DHT22;62797;49.740;10.154;2023-10-31T07:47:16;10.40;72.60
74364;DHT22;62797;49.740;10.154;2023-10-31T07:49:43;10.40;74.10
74364;DHT22;62797;49.740;10.154;2023-10-31T07:52:08;10.40;74.00
74364;DHT22;62797;49.740;10.154;2023-10-31T07:54:34;10.40;74.60
74364;DHT22;62797;49.740;10.154;2023-10-31T07:57:00;10.40;75.00
74364;DHT22;62797;49.740;10.154;2023-10-31T07:59:26;10.50;74.00
74364;DHT22;62797;49.740;10.154;2023-10-31T08:01:52;10.50;74.70
74364;DHT22;62797;49.740;10.154;2023-10-31T08:04:18;10.50;72.30
74364;DHT22;62797;49.740;10.154;2023-10-31T08:06:43;10.50;74.70
74364;DHT22;62797;49.740;10.154;2023-10-31T08:09:09;10.60;72.30
74364;DHT22;62797;49.740;10.154;2023-10-31T08:11:35;10.60;72.70
74364;DHT22;62797;49.740;10.154;2023-10-31T08:14:01;10.70;70.80
74364;DHT22;62797;49.740;10.154;2023-10-31T08:16:27;10.60;72.00
74364;DHT22;62797;49.740;10.154;2023-10-31T08:18:54;10.60;72.00
74364;DHT22;62797;49.740;10.154;2023-10-31T08:21:19;10.70;71.40
74364;DHT22;62797;49.740;10.154;2023-10-31T08:23:45;10.70;71.30
74364;DHT22;62797;49.740;10.154;2023-10-31T08:26:12;10.70;71.70
74364;DHT22;62797;49.740;10.154;2023-10-31T08:28:38;10.70;71.40
74364;DHT22;62797;49.740;10.154;2023-10-31T08:31:04;10.70;71.70
74364;DHT22;62797;49.740;10.154;2023-10-31T08:33:30;10.70;71.20
74364;DHT22;62797;49.740;10.154;2023-10-31T08:35:56;10.80;72.00
74364;DHT22;62797;49.740;10.154;2023-10-31T08:38:21;10.80;71.70
74364;DHT22;62797;49.740;10.154;2023-10-31T08:40:47;10.80;71.90
74364;DHT22;62797;49.740;10.154;2023-10-31T08:43:14;10.80;72.40
74364;DHT22;62797;49.740;10.154;2023-10-31T08:45:40;10.80;72.00
74364;DHT22;62797;49.740;10.154;2023-10-31T08:48:05;10.80;73.00
74364;DHT22;62797;49.740;10.154;2023-10-31T08:50:31;10.80;73.20
74364;DHT22;62797;49.740;10.154;2023-10-31T08:52:56;10.90;72.20
74364;DHT22;62797;49.740;10.154;2023-10-31T08:55:22;10.90;70.90
74364;DHT22;62797;49.740;10.154;2023-10-31T08:57:48;11.00;71.90
74364;DHT22;62797;49.740;10.154;2023-10-31T09:00:14;11.00;70.80
74364;DHT22;62797;49.740;10.154;2023-10-31T09:02:39;11.00;70.80
74364;DHT22;62797;49.740;10.154;2023-10-31T09:05:05;11.10;71.70
74364;DHT22;62797;49.740;10.154;2023-10-31T09:07:31;11.10;71.60
74364;DHT22;62797;49.740;10.154;2023-10-31T09:10:00;11.10;71.60
74364;DHT22;62797;49.740;10.154;2023-10-31T09:12:25;11.30;70.20
74364;DHT22;62797;49.740;10.154;2023-10-31T09:14:51;11.20;70.00
74364;DHT22;62797;49.740;10.154;2023-10-31T09:17:17;11.30;69.90
74364;DHT22;62797;49.740;10.154;2023-10-31T09:19:44;11.20;68.10
74364;DHT22;62797;49.740;10.154;2023-10-31T09:22:09;11.20;70.30
74364;DHT22;62797;49.740;10.154;2023-10-31T09:24:35;11.20;69.70
74364;DHT22;62797;49.740;10.154;2023-10-31T09:27:00;11.30;68.10
74364;DHT22;62797;49.740;10.154;2023-10-31T09:29:26;11.30;68.70
74364;DHT22;62797;49.740;10.154;2023-10-31T09:31:52;11.30;69.20
74364;DHT22;62797;49.740;10.154;2023-10-31T09:34:17;11.40;66.80
74364;DHT22;62797;49.740;10.154;2023-10-31T09:36:43;11.40;70.10
74364;DHT22;62797;49.740;10.154;2023-10-31T09:39:09;11.50;68.70
74364;DHT22;62797;49.740;10.154;2023-10-31T09:41:35;11.60;67.30
74364;DHT22;62797;49.740;10.154;2023-10-31T09:44:01;11.60;65.90
74364;DHT22;62797;49.740;10.154;2023-10-31T09:46:28;11.60;66.90
74364;DHT22;62797;49.740;10.154;2023-10-31T09:48:55;11.70;66.90
74364;DHT22;62797;49.740;10.154;2023-10-31T09:51:21;11.70;64.00
74364;DHT22;62797;49.740;10.154;2023-10-31T09:53:48;11.70;68.60
74364;DHT22;62797;49.740;10.154;2023-10-31T09:56:15;11.90;67.80
74364;DHT22;62797;49.740;10.154;2023-10-31T09:58:42;12.00;68.10
74364;DHT22;62797;49.740;10.154;2023-10-31T10:01:08;12.00;62.50
74364;DHT22;62797;49.740;10.154;2023-10-31T10:03:34;12.00;62.50
74364;DHT22;62797;49.740;10.154;2023-10-31T10:06:02;12.00;61.90
74364;DHT22;62797;49.740;10.154;2023-10-31T10:08:27;12.00;63.90
74364;DHT22;62797;49.740;10.154;2023-10-31T10:10:54;12.10;63.00
74364;DHT22;62797;49.740;10.154;2023-10-31T10:13:20;12.30;61.10
74364;DHT22;62797;49.740;10.154;2023-10-31T10:15:47;12.30;60.40
74364;DHT22;62797;49.740;10.154;2023-10-31T10:18:36;12.40;58.90
74364;DHT22;62797;49.740;10.154;2023-10-31T10:21:07;12.30;57.90
74364;DHT22;62797;49.740;10.154;2023-10-31T10:23:33;12.40;59.70
74364;DHT22;62797;49.740;10.154;2023-10-31T10:26:01;12.30;56.90
74364;DHT22;62797;49.740;10.154;2023-10-31T10:28:27;12.30;58.00
74364;DHT22;62797;49.740;10.154;2023-10-31T10:30:55;12.30;56.10
74364;DHT22;62797;49.740;10.154;2023-10-31T10:33:21;12.40;55.60
74364;DHT22;62797;49.740;10.154;2023-10-31T10:35:47;12.40;55.40
74364;DHT22;62797;49.740;10.154;2023-10-31T10:38:17;12.60;54.60
74364;DHT22;62797;49.740;10.154;2023-10-31T10:40:47;12.50;57.20
74364;DHT22;62797;49.740;10.154;2023-10-31T10:43:23;12.50;56.50
74364;DHT22;62797;49.740;10.154;2023-10-31T10:45:57;12.60;55.40
74364;DHT22;62797;49.740;10.154;2023-10-31T10:48:27;12.40;55.50
74364;DHT22;62797;49.740;10.154;2023-10-31T10:51:21;12.40;56.60
74364;DHT22;62797;49.740;10.154;2023-10-31T10:53:54;12.50;55.70
74364;DHT22;62797;49.740;10.154;2023-10-31T10:56:28;12.40;56.80
74364;DHT22;62797;49.740;10.154;2023-10-31T10:59:01;12.40;57.80
74364;DHT22;62797;49.740;10.154;2023-10-31T11:01:31;12.40;55.90
74364;DHT22;62797;49.740;10.154;2023-10-31T11:03:59;12.40;56.80
74364;DHT22;62797;49.740;10.154;2023-10-31T11:06:29;12.40;55.20
74364;DHT22;62797;49.740;10.154;2023-10-31T11:08:55;12.60;54.50
74364;DHT22;62797;49.740;10.154;2023-10-31T11:11:21;12.50;54.20
74364;DHT22;62797;49.740;10.154;2023-10-31T11:13:50;12.60;53.70
74364;DHT22;62797;49.740;10.154;2023-10-31T11:16:26;12.50;54.40
74364;DHT22;62797;49.740;10.154;2023-10-31T11:18:54;12.50;55.60
74364;DHT22;62797;49.740;10.154;2023-10-31T11:21:23;12.50;54.90
74364;DHT22;62797;49.740;10.154;2023-10-31T11:23:57;12.60;54.00
74364;DHT22;62797;49.740;10.154;2023-10-31T11:26:26;12.60;54.60
74364;DHT22;62797;49.740;10.154;2023-10-31T11:28:52;12.50;52.20
74364;DHT22;62797;49.740;10.154;2023-10-31T11:31:18;12.40;53.00
74364;DHT22;62797;49.740;10.154;2023-10-31T11:33:44;12.50;52.60
74364;DHT22;62797;49.740;10.154;2023-10-31T11:36:11;12.30;53.00
74364;DHT22;62797;49.740;10.154;2023-10-31T11:38:38;12.30;52.60
74364;DHT22;62797;49.740;10.154;2023-10-31T11:41:04;12.30;54.90
74364;DHT22;62797;49.740;10.154;2023-10-31T11:43:56;12.30;55.60
74364;DHT22;62797;49.740;10.154;2023-10-31T11:46:23;12.40;51.60
74364;DHT22;62797;49.740;10.154;2023-10-31T11:48:52;12.40;54.60
74364;DHT22;62797;49.740;10.154;2023-10-31T11:51:19;12.50;52.30
74364;DHT22;62797;49.740;10.154;2023-10-31T11:53:45;12.50;52.30
74364;DHT22;62797;49.740;10.154;2023-10-31T11:56:18;12.50;52.00
74364;DHT22;62797;49.740;10.154;2023-10-31T11:58:48;12.60;50.80
74364;DHT22;62797;49.740;10.154;2023-10-31T12:01:19;12.60;49.10
74364;DHT22;62797;49.740;10.154;2023-10-31T12:03:45;12.60;50.40
74364;DHT22;62797;49.740;10.154;2023-10-31T12:06:13;12.60;48.30
74364;DHT22;62797;49.740;10.154;2023-10-31T12:08:40;12.60;49.30
74364;DHT22;62797;49.740;10.154;2023-10-31T12:11:12;12.70;49.50
74364;DHT22;62797;49.740;10.154;2023-10-31T12:13:40;12.60;50.30
74364;DHT22;62797;49.740;10.154;2023-10-31T12:16:07;12.60;49.10
74364;DHT22;62797;49.740;10.154;2023-10-31T12:18:37;12.60;51.40
74364;DHT22;62797;49.740;10.154;2023-10-31T12:21:04;12.60;49.50
74364;DHT22;62797;49.740;10.154;2023-10-31T12:23:32;12.60;47.90
74364;DHT22;62797;49.740;10.154;2023-10-31T12:25:58;12.60;49.40
74364;DHT22;62797;49.740;10.154;2023-10-31T12:28:25;12.60;49.40
74364;DHT22;62797;49.740;10.154;2023-10-31T12:30:53;12.70;51.70
74364;DHT22;62797;49.740;10.154;2023-10-31T12:33:26;12.80;50.90
74364;DHT22;62797;49.740;10.154;2023-10-31T12:35:57;12.90;49.80
74364;DHT22;62797;49.740;10.154;2023-10-31T12:38:23;12.90;48.80
74364;DHT22;62797;49.740;10.154;2023-10-31T12:40:49;12.90;48.30
74364;DHT22;62797;49.740;10.154;2023-10-31T12:43:16;12.90;49.80
74364;DHT22;62797;49.740;10.154;2023-10-31T12:45:43;12.90;49.00
74364;DHT22;62797;49.740;10.154;2023-10-31T12:48:10;12.90;48.10
74364;DHT22;62797;49.740;10.154;2023-10-31T12:50:38;12.90;48.40
74364;DHT22;62797;49.740;10.154;2023-10-31T12:53:07;13.00;47.80
74364;DHT22;62797;49.740;10.154;2023-10-31T12:55:41;13.00;47.30
74364;DHT22;62797;49.740;10.154;2023-10-31T12:58:07;13.00;47.90
74364;DHT22;62797;49.740;10.154;2023-10-31T13:00:36;12.90;48.20
74364;DHT22;62797;49.740;10.154;2023-10-31T13:03:04;12.90;48.40
74364;DHT22;62797;49.740;10.154;2023-10-31T13:05:30;13.00;44.40
74364;DHT22;62797;49.740;10.154;2023-10-31T13:07:57;12.90;46.60
74364;DHT22;62797;49.740;10.154;2023-10-31T13:10:24;12.90;48.60
74364;DHT22;62797;49.740;10.154;2023-10-31T13:12:50;12.90;48.40
74364;DHT22;62797;49.740;10.154;2023-10-31T13:15:17;12.90;45.60
74364;DHT22;62797;49.740;10.154;2023-10-31T13:17:46;13.20;44.70
74364;DHT22;62797;49.740;10.154;2023-10-31T13:20:14;13.10;44.70
74364;DHT22;62797;49.740;10.154;2023-10-31T13:22:41;13.20;45.00
74364;DHT22;62797;49.740;10.154;2023-10-31T13:25:11;13.20;42.60
74364;DHT22;62797;49.740;10.154;2023-10-31T13:27:39;13.30;42.50
74364;DHT22;62797;49.740;10.154;2023-10-31T13:30:07;13.40;41.70
74364;DHT22;62797;49.740;10.154;2023-10-31T13:32:34;13.50;41.90
74364;DHT22;62797;49.740;10.154;2023-10-31T13:35:00;13.40;43.40
74364;DHT22;62797;49.740;10.154;2023-10-31T13:37:26;13.30;45.00
74364;DHT22;62797;49.740;10.154;2023-10-31T13:39:51;13.30;45.00
74364;DHT22;62797;49.740;10.154;2023-10-31T13:42:17;13.30;45.40
74364;DHT22;62797;49.740;10.154;2023-10-31T13:44:44;13.20;45.00
74364;DHT22;62797;49.740;10.154;2023-10-31T13:47:09;13.20;44.20
74364;DHT22;62797;49.740;10.154;2023-10-31T13:49:36;13.20;43.80
74364;DHT22;62797;49.740;10.154;2023-10-31T13:52:03;13.10;45.00
74364;DHT22;62797;49.740;10.154;2023-10-31T13:54:29;13.20;43.40
74364;DHT22;62797;49.740;10.154;2023-10-31T13:56:55;13.10;43.50
74364;DHT22;62797;49.740;10.154;2023-10-31T13:59:21;13.00;44.20
74364;DHT22;62797;49.740;10.154;2023-10-31T14:01:47;13.10;44.30
74364;DHT22;62797;49.740;10.154;2023-10-31T14:04:13;13.10;43.50
74364;DHT22;62797;49.740;10.154;2023-10-31T14:06:40;13.10;44.20
74364;DHT22;62797;49.740;10.154;2023-10-31T14:09:06;13.00;45.10
74364;DHT22;62797;49.740;10.154;2023-10-31T14:11:33;13.00;44.10
74364;DHT22;62797;49.740;10.154;2023-10-31T14:14:03;13.00;44.30
74364;DHT22;62797;49.740;10.154;2023-10-31T14:16:35;13.00;44.50
74364;DHT22;62797;49.740;10.154;2023-10-31T14:19:01;13.10;43.90
74364;DHT22;62797;49.740;10.154;2023-10-31T14:21:28;13.20;42.80
74364;DHT22;62797;49.740;10.154;2023-10-31T14:23:54;13.10;43.40
74364;DHT22;62797;49.740;10.154;2023-10-31T14:26:20;13.00;45.40
74364;DHT22;62797;49.740;10.154;2023-10-31T14:28:46;13.00;46.20
74364;DHT22;62797;49.740;10.154;2023-10-31T14:31:13;13.00;46.30
74364;DHT22;62797;49.740;10.154;2023-10-31T14:33:39;12.90;46.30
74364;DHT22;62797;49.740;10.154;2023-10-31T14:36:06;12.90;47.60
74364;DHT22;62797;49.740;10.154;2023-10-31T14:38:31;12.90;46.00
74364;DHT22;62797;49.740;10.154;2023-10-31T14:40:57;12.90;47.60
74364;DHT22;62797;49.740;10.154;2023-10-31T14:43:23;13.00;47.40
74364;DHT22;62797;49.740;10.154;2023-10-31T14:45:48;13.10;46.50
74364;DHT22;62797;49.740;10.154;2023-10-31T14:48:14;13.00;46.90
74364;DHT22;62797;49.740;10.154;2023-10-31T14:50:40;13.00;47.20
74364;DHT22;62797;49.740;10.154;2023-10-31T14:53:06;13.10;45.70
74364;DHT22;62797;49.740;10.154;2023-10-31T14:55:32;13.10;45.60
74364;DHT22;62797;49.740;10.154;2023-10-31T14:57:58;13.10;45.90
74364;DHT22;62797;49.740;10.154;2023-10-31T15:00:24;13.10;46.50
74364;DHT22;62797;49.740;10.154;2023-10-31T15:02:50;13.10;46.10
74364;DHT22;62797;49.740;10.154;2023-10-31T15:05:16;13.00;46.20
74364;DHT22;62797;49.740;10.154;2023-10-31T15:07:42;13.10;45.10
74364;DHT22;62797;49.740;10.154;2023-10-31T15:10:08;13.10;46.80
74364;DHT22;62797;49.740;10.154;2023-10-31T15:12:33;13.20;47.30